Have a Safe July 4th! 

Flight Track Log - Related Links

Times and Time Zones

All times are in EDT time to prevent confusion due to time zone crossing. See the CTL62 flight status page for this flight to view local times or setup timezone preferences in your user account.

Time Position Orientation Groundspeed Altitude Reporting Facility
EDT Latitude Longitude Course Direction KTS MPH feet Rate Location/Type
Mon 11:06:47 PM 40.0872 -83.1106 304° West 142 163 1,300  Level Indianapolis Center
Mon 11:07:42 PM 40.1111 -83.1569 304° West 171 197 2,000 675 Climbing Indianapolis Center
Mon 11:08:07 PM 40.1206 -83.1733 307° West 167 192 2,200 600 Climbing Indianapolis Center
Mon 11:08:42 PM 40.1367 -83.2119 299° West 174 200 2,600 689 Climbing Indianapolis Center
Mon 11:09:08 PM 40.1458 -83.2281 307° West 171 197 2,900 787 Climbing Indianapolis Center
Mon 11:09:43 PM 40.1603 -83.2639 298° West 165 190 3,400 984 Climbing Indianapolis Center
Mon 11:10:09 PM 40.1689 -83.2794 306° West 168 193 3,900 1,000 Climbing Indianapolis Center
Mon 11:10:43 PM 40.1822 -83.3100 300° West 144 166 4,400 787 Climbing Indianapolis Center
Mon 11:11:10 PM 40.1908 -83.3261 305° West 159 183 4,700 818 Climbing Indianapolis Center
Mon 11:12:11 PM 40.2114 -83.3736 300° West 153 176 5,600 634 Climbing Indianapolis Center
Mon 11:13:13 PM 40.2336 -83.4222 301° West 152 175 6,000 195 Climbing Indianapolis Center
Mon 11:14:14 PM 40.2597 -83.4781 302° West 165 190 6,000  Level Indianapolis Center
Mon 11:15:15 PM 40.2889 -83.5450 300° West 179 206 6,000  Level Indianapolis Center
Mon 11:16:16 PM 40.3153 -83.6019 301° West 181 208 6,000  Level Indianapolis Center
Mon 11:17:17 PM 40.3417 -83.6589 301° West 181 208 6,000  Level Indianapolis Center
Mon 11:18:19 PM 40.3681 -83.7156 301° West 181 208 6,000  Level Indianapolis Center
Mon 11:19:20 PM 40.3939 -83.7731 301° West 181 208 6,000  Level Indianapolis Center
Mon 11:20:21 PM 40.4200 -83.8311 301° West 183 211 6,000  Level Indianapolis Center
Mon 11:21:22 PM 40.4458 -83.8886 301° West 182 209 6,000  Level Indianapolis Center
Mon 11:22:23 PM 40.4708 -83.9469 299° West 182 209 6,000  Level Indianapolis Center
Mon 11:23:24 PM 40.4972 -84.0050 301° West 183 211 6,000  Level Indianapolis Center
Mon 11:24:25 PM 40.5256 -84.0611 304° West 184 212 6,000  Level Indianapolis Center
Mon 11:25:27 PM 40.5525 -84.1189 302° West 183 211 6,000  Level Indianapolis Center
Mon 11:26:28 PM 40.5781 -84.1772 300° West 183 211 6,000  Level Indianapolis Center
Mon 11:27:29 PM 40.6053 -84.2347 302° West 183 211 6,000  Level Indianapolis Center
Mon 11:28:30 PM 40.6300 -84.2914 300° West 181 208 6,000  Level Indianapolis Center
Mon 11:29:31 PM 40.6553 -84.3475 301° West 179 206 6,000  Level Indianapolis Center
Mon 11:30:32 PM 40.6806 -84.4039 301° West 178 205 6,000  Level Indianapolis Center
Mon 11:31:32 PM 40.7047 -84.4578 301° West 178 205 6,000  Level Chicago Center
Mon 11:32:33 PM 40.7300 -84.5139 301° West 178 205 6,000 49 Level Chicago Center
Mon 11:33:34 PM 40.7600 -84.5811 301° West 178 205 6,100  Climbing Chicago Center
Mon 11:34:35 PM 40.7847 -84.6372 300° West 177 204 6,000 -49 Descending Chicago Center
Mon 11:35:36 PM 40.8103 -84.6919 302° West 177 204 6,000  Level Chicago Center
Mon 11:36:37 PM 40.8353 -84.7486 300° West 177 204 6,000 49 Level Chicago Center
Mon 11:37:38 PM 40.8597 -84.8050 300° West 177 204 6,100 49 Climbing Chicago Center
Mon 11:38:39 PM 40.8839 -84.8606 300° West 176 203 6,100 -49 Level Chicago Center
Mon 11:39:40 PM 40.9081 -84.9164 300° West 175 201 6,000  Descending Chicago Center
Mon 11:40:41 PM 40.9322 -84.9717 300° West 175 201 6,100 49 Climbing Chicago Center
Mon 11:41:42 PM 40.9544 -85.0311 296° West 176 203 6,100  Level Chicago Center
Mon 11:42:43 PM 40.9781 -85.0872 299° West 176 203 6,100  Level Chicago Center
Mon 11:43:44 PM 41.0025 -85.1439 300° West 176 203 6,100  Level Chicago Center
Mon 11:44:45 PM 41.0275 -85.2003 300° West 178 205 6,100 -50 Level Chicago Center
Mon 11:45:45 PM 41.0519 -85.2578 299° West 178 205 6,000  Descending Chicago Center
Mon 11:46:46 PM 41.0758 -85.3131 300° West 175 201 6,100 49 Climbing Chicago Center
Mon 11:47:47 PM 41.1064 -85.3778 302° West 173 199 6,100  Level Chicago Center
Mon 11:48:48 PM 41.1319 -85.4333 301° West 175 201 6,100  Level Chicago Center
Mon 11:49:49 PM 41.1556 -85.4881 300° West 172 198 6,100 -49 Level Chicago Center
Mon 11:50:50 PM 41.1786 -85.5447 298° West 173 199 6,000  Descending Chicago Center
Mon 11:51:51 PM 41.2000 -85.6006 297° West 172 198 6,100 50 Climbing Chicago Center
Mon 11:52:51 PM 41.2233 -85.6567 299° West 172 198 6,100 -50 Level Chicago Center
Mon 11:53:52 PM 41.2481 -85.7117 301° West 174 200 6,000 -49 Descending Chicago Center
Mon 11:54:53 PM 41.2711 -85.7675 299° West 173 199 6,000 49 Level Chicago Center
Mon 11:55:54 PM 41.2947 -85.8242 299° West 174 200 6,100 49 Climbing Chicago Center
Mon 11:56:55 PM 41.3183 -85.8800 299° West 174 200 6,100  Level Chicago Center
Mon 11:57:56 PM 41.3411 -85.9347 299° West 170 196 6,100  Level Chicago Center
Mon 11:58:58 PM 41.3622 -85.9919 296° West 171 197 6,100  Level Chicago Center
Mon 11:59:58 PM 41.3869 -86.0475 301° West 173 199 6,100  Level Chicago Center
Tue 12:00:59 AM 41.4100 -86.1031 299° West 173 199 6,100  Level Chicago Center
Tue 12:02:00 AM 41.4322 -86.1589 298° West 172 198 6,100  Level Chicago Center
Tue 12:03:01 AM 41.4544 -86.2153 298° West 172 198 6,100  Level Chicago Center
Tue 12:04:01 AM 41.4778 -86.2719 299° West 174 200 6,100  Level Chicago Center
Tue 12:05:02 AM 41.5064 -86.3403 299° West 176 203 6,100  Level Chicago Center
Tue 12:06:03 AM 41.5292 -86.3981 298° West 176 203 6,100  Level Chicago Center
Tue 12:07:03 AM 41.5517 -86.4533 299° West 173 199 6,100  Level Chicago Center
Tue 12:08:04 AM 41.5742 -86.5103 298° West 173 199 6,100  Level Chicago Center
Tue 12:09:05 AM 41.5967 -86.5653 299° West 172 198 6,100  Level Chicago Center
Tue 12:10:05 AM 41.6183 -86.6225 297° West 173 199 6,100  Level Chicago Center
Tue 12:11:06 AM 41.6408 -86.6786 298° West 172 198 6,100  Level Chicago Center
Tue 12:12:07 AM 41.6656 -86.7319 302° West 168 193 6,100  Level Chicago Center
Tue 12:13:07 AM 41.6892 -86.7869 300° West 170 196 6,100  Level Chicago Center
Tue 12:14:08 AM 41.7133 -86.8425 300° West 173 199 6,100  Level Chicago Center
Tue 12:15:09 AM 41.7347 -86.8989 297° West 172 198 6,100  Level Chicago Center
Tue 12:16:09 AM 41.7572 -86.9544 299° West 171 197 6,100  Level Chicago Center
Tue 12:17:10 AM 41.7808 -87.0092 300° West 170 196 6,100 -50 Level Chicago Center
Tue 12:18:10 AM 41.8042 -87.0656 299° West 172 198 6,000 -50 Descending Chicago Center
Tue 12:19:11 AM 41.8258 -87.1208 298° West 171 197 6,000 -197 Level Chicago Center
Tue 12:20:12 AM 41.8519 -87.1883 297° West 171 197 5,600 -545 Descending Chicago Center
Tue 12:21:12 AM 41.8756 -87.2511 297° West 183 211 4,900 -793 Descending Chicago Center
Tue 12:22:13 AM 41.9003 -87.3161 297° West 192 221 4,000 -492 Descending Chicago Center
Tue 12:23:14 AM 41.9264 -87.3781 300° West 193 222 3,900  Descending Chicago Center
Tue 12:23:51 AM 41.9333 -87.4167 284° West 175 201 4,000 -233 Climbing Chicago TRACON
Tue 12:24:57 AM 41.9667 -87.4833 304° West 187 215 3,500 -455 Descending Chicago TRACON
Tue 12:26:03 AM 42.0000 -87.5500 304° West 193 222 3,000 -571 Descending Chicago TRACON
Tue 12:27:03 AM 42.0167 -87.6167 289° West 199 229 2,300 -632 Descending Chicago TRACON
Tue 12:27:57 AM 42.0333 -87.6833 289° West 199 229 1,800 -421 Descending Chicago TRACON
Tue 12:28:57 AM 42.0667 -87.7500 304° West 190 219 1,500 -300 Descending Chicago TRACON
Tue 12:31:00 AM 42.0896 -87.8582 289° West  Level FlightAware Approximate
Tue 12:38:00 AM 42.1000 -87.9000 289° West  Level FlightAware Approximate
Tue 12:39:00 AM 42.1143 -87.9015 289° West  Level Estimated

Login

Don't have an account? Register now (free) for customized features, flight alerts, and more!